createdAt,value
2022-10-07T00:00:07.646Z,9.33
2022-10-07T00:01:07.688Z,9.34
2022-10-07T00:02:07.616Z,9.34
2022-10-07T00:03:07.495Z,9.29
2022-10-07T00:04:07.448Z,9.40
2022-10-07T00:05:07.392Z,9.36
2022-10-07T00:06:07.346Z,9.37
2022-10-07T00:07:07.308Z,9.39
2022-10-07T00:08:07.252Z,9.36
2022-10-07T00:09:07.204Z,9.33
2022-10-07T00:10:07.157Z,9.31
2022-10-07T00:11:07.131Z,9.31
2022-10-07T00:12:07.071Z,9.34
2022-10-07T00:13:07.018Z,9.33
2022-10-07T00:14:06.967Z,9.33
2022-10-07T00:15:06.923Z,9.31
2022-10-07T00:16:07.020Z,9.34
2022-10-07T00:17:06.830Z,9.19
2022-10-07T00:18:06.779Z,9.24
2022-10-07T00:19:06.733Z,9.30
2022-10-07T00:20:06.686Z,9.29
2022-10-07T00:21:06.652Z,9.27
2022-10-07T00:22:06.591Z,9.19
2022-10-07T00:23:06.548Z,9.37
2022-10-07T00:24:06.500Z,9.29
2022-10-07T00:25:06.452Z,9.26
2022-10-07T00:26:06.402Z,9.22
2022-10-07T00:27:06.358Z,9.37
2022-10-07T00:28:06.376Z,9.29
2022-10-07T00:29:06.264Z,9.27
2022-10-07T00:30:06.218Z,9.24
2022-10-07T00:31:06.203Z,9.27
2022-10-07T00:32:06.141Z,9.29
2022-10-07T00:33:06.074Z,9.37
2022-10-07T00:34:06.025Z,9.30
2022-10-07T00:35:05.989Z,9.26
2022-10-07T00:36:05.898Z,9.22
2022-10-07T00:37:05.869Z,9.39
2022-10-07T00:38:05.802Z,9.37
2022-10-07T00:39:05.760Z,9.26
2022-10-07T00:40:05.721Z,9.33
2022-10-07T00:41:05.670Z,9.36
2022-10-07T00:42:05.619Z,9.36
2022-10-07T00:43:05.568Z,9.34
2022-10-07T00:44:05.520Z,9.37
2022-10-07T00:45:05.474Z,9.31
2022-10-07T00:46:05.528Z,9.33
2022-10-07T00:47:05.382Z,9.36
2022-10-07T00:48:05.355Z,9.36
2022-10-07T00:49:05.286Z,9.36
2022-10-07T00:50:05.240Z,9.37
2022-10-07T00:51:05.194Z,9.39
2022-10-07T00:52:05.147Z,9.40
2022-10-07T00:53:05.100Z,9.34
2022-10-07T00:54:05.053Z,9.36
2022-10-07T00:55:05.002Z,9.33
2022-10-07T00:56:04.956Z,9.37
2022-10-07T00:57:04.907Z,9.37
2022-10-07T00:58:04.863Z,9.37
2022-10-07T00:59:04.812Z,9.30
2022-10-07T01:00:04.772Z,9.33
2022-10-07T01:01:04.756Z,9.34
2022-10-07T01:02:04.739Z,9.40
2022-10-07T01:03:04.630Z,9.33
2022-10-07T01:04:04.599Z,9.36
2022-10-07T01:05:04.531Z,9.36
2022-10-07T01:06:04.489Z,9.31
2022-10-07T01:07:04.441Z,9.36
2022-10-07T01:08:04.392Z,9.22
2022-10-07T01:09:04.342Z,9.45
2022-10-07T01:10:04.301Z,9.31
2022-10-07T01:11:04.252Z,9.36
2022-10-07T01:12:04.204Z,9.33
2022-10-07T01:13:04.156Z,9.40
2022-10-07T01:14:04.111Z,9.39
2022-10-07T01:15:04.062Z,9.34
2022-10-07T01:16:04.017Z,9.33
2022-10-07T01:17:04.064Z,9.33
2022-10-07T01:18:03.924Z,9.39
2022-10-07T01:19:03.877Z,9.42
2022-10-07T01:20:03.911Z,9.33
2022-10-07T01:21:03.778Z,9.31
2022-10-07T01:22:03.739Z,9.40
2022-10-07T01:23:03.691Z,9.34
2022-10-07T01:24:03.644Z,9.36
2022-10-07T01:25:03.594Z,9.36
2022-10-07T01:26:03.546Z,9.40
2022-10-07T01:27:03.500Z,9.30
2022-10-07T01:28:03.484Z,9.37
2022-10-07T01:29:03.407Z,9.33
2022-10-07T01:30:03.380Z,9.34
2022-10-07T01:31:03.357Z,9.36
2022-10-07T01:32:03.265Z,9.37
2022-10-07T01:33:03.216Z,9.36
2022-10-07T01:34:03.172Z,9.34
2022-10-07T01:35:03.123Z,9.36
2022-10-07T01:36:03.100Z,9.36
2022-10-07T01:37:03.026Z,9.39
2022-10-07T01:38:02.983Z,9.39
2022-10-07T01:39:02.931Z,9.40
2022-10-07T01:40:02.891Z,9.33
2022-10-07T01:41:02.842Z,9.31
2022-10-07T01:42:02.791Z,9.37
2022-10-07T01:43:02.745Z,9.36
2022-10-07T01:44:02.698Z,9.33
2022-10-07T01:45:02.652Z,9.37
2022-10-07T01:46:02.675Z,9.34
2022-10-07T01:47:02.554Z,9.42
2022-10-07T01:48:02.511Z,9.37
2022-10-07T01:49:02.467Z,9.31
2022-10-07T01:50:02.425Z,9.27
2022-10-07T01:51:02.373Z,9.42
2022-10-07T01:52:02.489Z,9.34
2022-10-07T01:53:02.271Z,9.42
2022-10-07T01:54:02.232Z,9.33
2022-10-07T01:55:02.180Z,9.39
2022-10-07T01:56:02.135Z,9.37
2022-10-07T01:57:02.086Z,9.36
2022-10-07T01:58:02.040Z,9.34
2022-10-07T01:59:01.994Z,9.37
2022-10-07T02:00:01.948Z,9.39
2022-10-07T02:01:01.932Z,9.34
2022-10-07T02:02:01.863Z,9.33
2022-10-07T02:03:01.805Z,9.44
2022-10-07T02:04:01.814Z,9.37
2022-10-07T02:05:01.721Z,9.36
2022-10-07T02:06:01.664Z,9.37
2022-10-07T02:07:01.616Z,9.40
2022-10-07T02:08:01.590Z,9.34
2022-10-07T02:09:01.519Z,9.42
2022-10-07T02:10:01.508Z,9.34
2022-10-07T02:11:01.432Z,9.33
2022-10-07T02:12:01.382Z,9.39
2022-10-07T02:13:01.332Z,9.30
2022-10-07T02:14:01.296Z,9.36
2022-10-07T02:15:01.242Z,9.39
2022-10-07T02:16:01.224Z,9.34
2022-10-07T02:17:01.148Z,9.37
2022-10-07T02:18:01.101Z,9.39
2022-10-07T02:19:01.050Z,9.40
2022-10-07T02:20:01.013Z,9.34
2022-10-07T02:21:00.956Z,9.44
2022-10-07T02:22:00.917Z,9.33
2022-10-07T02:23:00.865Z,9.42
2022-10-07T02:24:00.836Z,9.33
2022-10-07T02:25:00.770Z,9.39
2022-10-07T02:26:00.727Z,9.36
2022-10-07T02:27:00.683Z,9.30
2022-10-07T02:28:00.678Z,9.34
2022-10-07T02:29:00.581Z,9.42
2022-10-07T02:30:00.542Z,9.33
2022-10-07T02:31:00.543Z,9.36
2022-10-07T02:32:00.442Z,9.34
2022-10-07T02:33:00.394Z,9.40
2022-10-07T02:34:00.347Z,9.34
2022-10-07T02:35:00.316Z,9.36
2022-10-07T02:36:00.254Z,9.39
2022-10-07T02:37:00.204Z,9.39
2022-10-07T02:38:00.160Z,9.33
2022-10-07T02:39:00.112Z,9.31
2022-10-07T02:40:00.094Z,9.44
2022-10-07T02:41:00.016Z,9.34
2022-10-07T02:41:59.976Z,9.37
2022-10-07T02:42:59.922Z,9.42
2022-10-07T02:43:59.876Z,9.34
2022-10-07T02:44:59.828Z,9.47
2022-10-07T02:45:59.811Z,9.40
2022-10-07T02:46:59.742Z,9.36
2022-10-07T02:47:59.691Z,9.34
2022-10-07T02:48:59.643Z,9.36
2022-10-07T02:49:59.595Z,9.34
2022-10-07T02:50:59.545Z,9.39
2022-10-07T02:51:59.504Z,9.40
2022-10-07T02:52:59.451Z,9.44
2022-10-07T02:53:59.411Z,9.36
2022-10-07T02:54:59.357Z,9.42
2022-10-07T02:55:59.425Z,9.42
2022-10-07T02:56:59.271Z,9.51
2022-10-07T02:57:59.221Z,9.49
2022-10-07T02:58:59.170Z,9.40
2022-10-07T02:59:59.124Z,9.49
2022-10-07T03:00:59.075Z,9.39
2022-10-07T03:01:59.087Z,9.48
2022-10-07T03:02:58.980Z,9.37
2022-10-07T03:03:59.009Z,9.51
2022-10-07T03:04:58.887Z,9.48
2022-10-07T03:05:58.844Z,9.48
2022-10-07T03:06:58.812Z,9.48
2022-10-07T03:07:58.748Z,9.52
2022-10-07T03:08:58.700Z,9.48
2022-10-07T03:09:58.654Z,9.45
2022-10-07T03:10:58.609Z,9.49
2022-10-07T03:11:58.583Z,9.51
2022-10-07T03:12:58.511Z,9.49
2022-10-07T03:13:58.467Z,9.48
2022-10-07T03:14:58.417Z,9.49
2022-10-07T03:15:58.386Z,9.55
2022-10-07T03:16:58.321Z,9.54
2022-10-07T03:17:58.278Z,9.54
2022-10-07T03:18:58.230Z,9.58
2022-10-07T03:19:58.191Z,9.56
2022-10-07T03:20:58.142Z,9.62
2022-10-07T03:22:41.470Z,9.58
2022-10-07T03:23:41.430Z,9.54
2022-10-07T03:24:41.375Z,9.59
2022-10-07T03:25:41.332Z,9.62
2022-10-07T03:26:41.280Z,9.54
2022-10-07T03:27:41.496Z,9.62
2022-10-07T03:28:41.254Z,9.54
2022-10-07T03:29:41.146Z,9.58
2022-10-07T03:30:41.093Z,9.56
2022-10-07T03:31:41.110Z,9.67
2022-10-07T03:32:41.015Z,9.64
2022-10-07T03:33:40.954Z,9.66
2022-10-07T03:34:40.906Z,9.59
2022-10-07T03:35:40.858Z,9.67
2022-10-07T03:36:40.812Z,9.52
2022-10-07T03:37:40.767Z,9.55
2022-10-07T03:38:40.724Z,9.70
2022-10-07T03:39:40.672Z,9.67
2022-10-07T03:40:40.622Z,9.59
2022-10-07T03:41:40.585Z,9.72
2022-10-07T03:42:40.530Z,9.62
2022-10-07T03:43:40.504Z,9.69
2022-10-07T03:44:40.437Z,9.59
2022-10-07T03:45:40.395Z,9.59
2022-10-07T03:46:40.383Z,9.59
2022-10-07T03:47:40.297Z,9.62
2022-10-07T03:48:40.248Z,9.56
2022-10-07T03:49:40.204Z,9.66
2022-10-07T03:50:40.155Z,9.63
2022-10-07T03:51:40.114Z,9.58
2022-10-07T03:52:40.061Z,9.66
2022-10-07T03:53:40.017Z,9.64
2022-10-07T03:54:39.970Z,9.64
2022-10-07T03:55:39.925Z,9.58
2022-10-07T03:56:39.873Z,9.67
2022-10-07T03:57:39.829Z,9.64
2022-10-07T03:58:39.779Z,9.54
2022-10-07T03:59:39.757Z,9.55
2022-10-07T04:00:39.685Z,9.56
2022-10-07T04:01:39.777Z,9.56
2022-10-07T04:02:39.642Z,9.63
2022-10-07T04:03:39.546Z,9.67
2022-10-07T04:04:39.497Z,9.69
2022-10-07T04:05:39.451Z,9.59
2022-10-07T04:06:39.405Z,9.58
2022-10-07T04:07:39.360Z,9.64
2022-10-07T04:08:39.309Z,9.64
2022-10-07T04:09:39.264Z,9.58
2022-10-07T04:10:39.217Z,9.66
2022-10-07T04:11:39.172Z,9.64
2022-10-07T04:12:39.135Z,9.56
2022-10-07T04:13:39.080Z,9.58
2022-10-07T04:14:39.028Z,9.58
2022-10-07T04:16:39.047Z,9.56
2022-10-07T04:17:38.886Z,9.56
2022-10-07T04:18:38.843Z,9.55
2022-10-07T04:19:38.792Z,9.49
2022-10-07T04:20:38.746Z,9.52
2022-10-07T04:21:38.698Z,9.56
2022-10-07T04:22:38.655Z,9.56
2022-10-07T04:23:38.614Z,9.52
2022-10-07T04:24:38.571Z,9.51
2022-10-07T04:25:38.531Z,9.48
2022-10-07T04:26:38.477Z,9.58
2022-10-07T04:27:51.053Z,9.54
2022-10-07T04:28:38.495Z,9.48
2022-10-07T04:29:39.318Z,9.52
2022-10-07T04:30:38.277Z,9.54
2022-10-07T04:31:38.318Z,9.48
2022-10-07T04:32:38.213Z,9.45
2022-10-07T04:33:38.133Z,9.52
2022-10-07T04:34:38.104Z,9.54
2022-10-07T04:35:38.041Z,9.47
2022-10-07T04:36:38.004Z,9.51
2022-10-07T04:37:37.949Z,9.51
2022-10-07T04:38:37.905Z,9.48
2022-10-07T04:39:59.568Z,9.49
2022-10-07T04:40:37.809Z,9.48
2022-10-07T04:41:37.759Z,9.47
2022-10-07T04:42:37.715Z,9.48
2022-10-07T04:43:37.663Z,9.48
2022-10-07T04:44:37.621Z,9.49
2022-10-07T04:45:37.573Z,9.52
2022-10-07T04:46:37.594Z,9.44
2022-10-07T04:47:37.479Z,9.52
2022-10-07T04:48:37.450Z,9.49
2022-10-07T04:49:37.382Z,9.47
2022-10-07T04:50:37.337Z,9.48
2022-10-07T04:51:37.289Z,9.48
2022-10-07T04:52:37.245Z,9.45
2022-10-07T04:53:37.197Z,9.49
2022-10-07T04:54:37.152Z,9.48
2022-10-07T04:55:37.110Z,9.48
2022-10-07T04:56:37.058Z,9.54
2022-10-07T04:57:37.008Z,9.49
2022-10-07T04:58:36.966Z,9.49
2022-10-07T04:59:41.831Z,9.48
2022-10-07T05:00:36.980Z,9.44
2022-10-07T05:01:36.912Z,9.45
2022-10-07T05:02:36.778Z,9.49
2022-10-07T05:03:36.727Z,9.49
2022-10-07T05:04:36.705Z,9.51
2022-10-07T05:05:36.629Z,9.44
2022-10-07T05:06:36.584Z,9.45
2022-10-07T05:07:36.582Z,9.44
2022-10-07T05:08:36.494Z,9.44
2022-10-07T05:09:36.444Z,9.48
2022-10-07T05:10:36.395Z,9.49
2022-10-07T05:11:36.350Z,9.40
2022-10-07T05:12:36.304Z,9.34
2022-10-07T05:13:36.254Z,9.49
2022-10-07T05:14:36.208Z,9.42
2022-10-07T05:15:36.160Z,9.44
2022-10-07T05:16:36.192Z,9.48
2022-10-07T05:17:36.065Z,9.45
2022-10-07T05:18:36.017Z,9.39
2022-10-07T05:19:35.969Z,9.44
2022-10-07T05:20:35.940Z,9.44
2022-10-07T05:21:35.879Z,9.40
2022-10-07T05:22:35.827Z,9.48
2022-10-07T05:24:36.747Z,9.44
2022-10-07T05:25:35.681Z,9.34
2022-10-07T05:26:35.632Z,9.49
2022-10-07T05:27:35.585Z,9.37
2022-10-07T05:28:35.601Z,9.42
2022-10-07T05:29:35.490Z,9.47
2022-10-07T05:30:35.440Z,9.47
2022-10-07T05:31:35.416Z,9.48
2022-10-07T05:32:35.342Z,9.47
2022-10-07T05:33:35.305Z,9.51
2022-10-07T05:34:35.246Z,9.49
2022-10-07T05:35:35.199Z,9.49
2022-10-07T05:36:35.172Z,9.52
2022-10-07T05:37:35.103Z,9.48
2022-10-07T05:38:35.054Z,9.49
2022-10-07T05:39:35.006Z,9.51
2022-10-07T05:40:34.962Z,9.40
2022-10-07T05:41:44.997Z,9.40
2022-10-07T05:42:34.878Z,9.47
2022-10-07T05:43:34.811Z,9.49
2022-10-07T05:44:34.762Z,9.51
2022-10-07T05:45:34.770Z,9.47
2022-10-07T05:46:34.666Z,9.49
2022-10-07T05:47:34.618Z,9.51
2022-10-07T05:48:38.947Z,9.55
2022-10-07T05:49:34.521Z,9.49
2022-10-07T05:50:34.472Z,9.54
2022-10-07T05:51:34.423Z,9.47
2022-10-07T05:52:34.391Z,9.47
2022-10-07T05:53:34.329Z,9.49
2022-10-07T05:54:34.280Z,9.49
2022-10-07T05:55:39.436Z,9.49
2022-10-07T05:56:34.183Z,9.52
2022-10-07T05:57:34.135Z,9.51
2022-10-07T05:58:34.085Z,9.48
2022-10-07T05:59:34.036Z,9.49
2022-10-07T06:00:33.985Z,9.58
2022-10-07T06:01:33.966Z,9.56
2022-10-07T06:02:34.108Z,9.58
2022-10-07T06:03:33.844Z,9.52
2022-10-07T06:04:33.830Z,9.59
2022-10-07T06:05:33.750Z,9.54
2022-10-07T06:06:33.700Z,9.51
2022-10-07T06:07:33.649Z,9.54
2022-10-07T06:08:33.615Z,9.55
2022-10-07T06:09:33.552Z,9.58
2022-10-07T06:10:33.502Z,9.56
2022-10-07T06:11:33.457Z,9.62
2022-10-07T06:12:33.409Z,9.66
2022-10-07T06:13:33.359Z,9.70
2022-10-07T06:14:33.309Z,9.62
2022-10-07T06:15:33.262Z,9.69
2022-10-07T06:16:33.346Z,9.63
2022-10-07T06:17:33.165Z,9.66
2022-10-07T06:18:33.116Z,9.64
2022-10-07T06:19:33.071Z,9.63
2022-10-07T06:20:33.017Z,9.66
2022-10-07T06:21:32.971Z,9.69
2022-10-07T06:22:32.923Z,9.70
2022-10-07T06:23:32.875Z,9.69
2022-10-07T06:24:32.840Z,9.69
2022-10-07T06:25:32.782Z,9.74
2022-10-07T06:26:32.731Z,9.73
2022-10-07T06:27:32.686Z,9.76
2022-10-07T06:28:32.680Z,9.80
2022-10-07T06:29:32.587Z,9.81
2022-10-07T06:30:32.690Z,9.80
2022-10-07T06:31:32.487Z,9.80
2022-10-07T06:32:32.443Z,9.90
2022-10-07T06:33:32.392Z,9.85
2022-10-07T06:34:32.343Z,9.88
2022-10-07T06:35:32.292Z,9.87
2022-10-07T06:36:32.245Z,9.87
2022-10-07T06:37:32.195Z,9.90
2022-10-07T06:38:32.144Z,10.00
2022-10-07T06:39:32.098Z,9.87
2022-10-07T06:40:32.066Z,9.97
2022-10-07T06:41:32.003Z,10.03
2022-10-07T06:42:31.955Z,10.05
2022-10-07T06:43:31.904Z,9.99
2022-10-07T06:44:31.860Z,10.05
2022-10-07T06:45:31.972Z,10.02
2022-10-07T06:46:31.855Z,10.03
2022-10-07T06:47:31.712Z,10.10
2022-10-07T06:49:31.614Z,10.15
2022-10-07T06:50:31.569Z,10.21
2022-10-07T06:51:31.518Z,10.18
2022-10-07T06:52:31.471Z,10.27
2022-10-07T06:53:31.424Z,10.25
2022-10-07T06:54:31.375Z,10.27
2022-10-07T06:55:31.324Z,10.33
2022-10-07T06:56:31.296Z,10.36
2022-10-07T06:57:45.327Z,10.36
2022-10-07T06:58:31.180Z,10.33
2022-10-07T06:59:31.132Z,10.45
2022-10-07T07:00:31.094Z,10.49
2022-10-07T07:01:31.069Z,10.46
2022-10-07T07:02:31.044Z,10.51
2022-10-07T07:03:30.937Z,10.58
2022-10-07T07:04:30.895Z,10.58
2022-10-07T07:05:30.844Z,10.67
2022-10-07T07:06:30.796Z,10.64
2022-10-07T07:07:30.746Z,10.65
2022-10-07T07:08:30.701Z,10.77
2022-10-07T07:09:30.648Z,10.77
2022-10-07T07:10:30.603Z,10.83
2022-10-07T07:11:30.556Z,10.83
2022-10-07T07:12:30.523Z,10.94
2022-10-07T07:13:30.458Z,11.01
2022-10-07T07:14:30.411Z,11.07
2022-10-07T07:15:30.364Z,11.08
2022-10-07T07:16:30.350Z,11.16
2022-10-07T07:17:30.265Z,11.25
2022-10-07T07:18:30.225Z,11.33
2022-10-07T07:19:30.216Z,11.30
2022-10-07T07:20:30.124Z,11.34
2022-10-07T07:21:30.075Z,11.44
2022-10-07T07:22:30.033Z,11.44
2022-10-07T07:23:29.977Z,11.56
2022-10-07T07:24:29.944Z,11.53
2022-10-07T07:25:29.886Z,11.56
2022-10-07T07:26:29.837Z,11.55
2022-10-07T07:27:29.787Z,11.63
2022-10-07T07:28:29.816Z,11.73
2022-10-07T07:29:29.693Z,11.68
2022-10-07T07:30:29.703Z,11.74
2022-10-07T07:31:29.596Z,11.86
2022-10-07T07:32:29.551Z,11.89
2022-10-07T07:33:29.511Z,11.93
2022-10-07T07:34:29.457Z,11.96
2022-10-07T07:35:29.406Z,12.07
2022-10-07T07:36:29.362Z,12.08
2022-10-07T07:37:29.314Z,11.99
2022-10-07T07:38:29.270Z,12.08
2022-10-07T07:39:29.216Z,12.14
2022-10-07T07:40:29.170Z,12.21
2022-10-07T07:41:29.123Z,12.21
2022-10-07T07:42:29.077Z,12.21
2022-10-07T07:43:29.029Z,12.29
2022-10-07T07:44:32.580Z,12.33
2022-10-07T07:45:28.935Z,12.29
2022-10-07T07:46:28.895Z,12.33
2022-10-07T07:47:28.840Z,12.50
2022-10-07T07:48:28.789Z,12.57
2022-10-07T07:49:28.755Z,12.65
2022-10-07T07:50:28.699Z,12.65
2022-10-07T07:51:28.656Z,12.58
2022-10-07T07:52:28.606Z,12.73
2022-10-07T07:53:28.558Z,12.80
2022-10-07T07:54:28.516Z,12.83
2022-10-07T07:55:28.464Z,12.87
2022-10-07T07:56:28.417Z,12.91
2022-10-07T07:57:28.373Z,12.88
2022-10-07T07:58:28.319Z,12.90
2022-10-07T07:59:28.271Z,13.03
2022-10-07T08:00:28.243Z,13.06
2022-10-07T08:01:28.206Z,13.20
2022-10-07T08:02:28.217Z,13.12
2022-10-07T08:03:28.084Z,13.19
2022-10-07T08:04:28.037Z,13.17
2022-10-07T08:05:27.994Z,13.26
2022-10-07T08:06:27.988Z,13.31
2022-10-07T08:07:27.906Z,13.30
2022-10-07T08:08:27.849Z,13.40
2022-10-07T08:09:27.804Z,13.47
2022-10-07T08:10:27.756Z,13.45
2022-10-07T08:11:27.717Z,13.49
2022-10-07T08:12:27.661Z,13.50
2022-10-07T08:13:27.615Z,13.47
2022-10-07T08:14:27.572Z,13.54
2022-10-07T08:15:27.531Z,13.67
2022-10-07T08:16:27.554Z,13.65
2022-10-07T08:17:27.449Z,13.76
2022-10-07T08:18:27.383Z,13.68
2022-10-07T08:19:27.342Z,13.85
2022-10-07T08:20:27.307Z,13.80
2022-10-07T08:21:27.251Z,14.00
2022-10-07T08:22:27.203Z,13.89
2022-10-07T08:23:27.161Z,14.03
2022-10-07T08:24:27.117Z,14.04
2022-10-07T08:25:27.071Z,14.11
2022-10-07T08:26:27.023Z,14.05
